createdAt,value
2022-09-13T00:01:50.700Z,99096.41
2022-09-13T00:04:20.887Z,99091.20
2022-09-13T00:06:51.143Z,99093.09
2022-09-13T00:09:21.406Z,99090.06
2022-09-13T00:11:52.492Z,99091.80
2022-09-13T00:14:22.975Z,99093.47
2022-09-13T00:16:53.652Z,99093.47
2022-09-13T00:19:24.075Z,99083.35
2022-09-13T00:21:54.353Z,99095.75
2022-09-13T00:24:24.621Z,99083.34
2022-09-13T00:26:54.788Z,99086.95
2022-09-13T00:29:26.666Z,99085.40
2022-09-13T00:31:59.298Z,99073.98
2022-09-13T00:34:29.560Z,99085.84
2022-09-13T00:36:59.871Z,99073.75
2022-09-13T00:39:30.101Z,99073.75
2022-09-13T00:42:00.426Z,99071.41
2022-09-13T00:47:59.696Z,99075.36
2022-09-13T00:53:34.097Z,99076.22
2022-09-13T00:56:09.395Z,99073.87
2022-09-13T00:58:43.174Z,99081.27
2022-09-13T01:01:17.566Z,99081.38
2022-09-13T01:03:50.164Z,99083.53
2022-09-13T01:09:13.605Z,99085.17
2022-09-13T01:11:49.530Z,99085.17
2022-09-13T01:14:20.940Z,99083.62
2022-09-13T01:16:53.436Z,99084.39
2022-09-13T01:19:24.239Z,99084.67
2022-09-13T01:22:20.731Z,99073.53
2022-09-13T01:24:59.916Z,99073.75
2022-09-13T01:27:36.151Z,99071.54
2022-09-13T01:30:15.910Z,99071.54
2022-09-13T01:33:22.317Z,99070.19
2022-09-13T01:36:16.456Z,99064.16
2022-09-13T01:38:49.911Z,99068.06
2022-09-13T01:41:43.967Z,99065.34
2022-09-13T01:44:41.251Z,99065.34
2022-09-13T01:47:20.218Z,99061.13
2022-09-13T01:50:14.266Z,99061.13
2022-09-13T01:52:53.101Z,99058.64
2022-09-13T01:55:35.217Z,99057.98
2022-09-13T01:58:23.473Z,99053.31
2022-09-13T02:01:11.482Z,99047.73
2022-09-13T02:03:56.966Z,99047.73
2022-09-13T02:06:33.240Z,99056.36
2022-09-13T02:09:07.064Z,99052.60
2022-09-13T02:11:41.231Z,99048.87
2022-09-13T02:17:06.213Z,99049.55
2022-09-13T02:19:51.415Z,99042.86
2022-09-13T02:22:27.069Z,99040.27
2022-09-13T02:25:00.720Z,99034.73
2022-09-13T02:27:33.394Z,99025.37
2022-09-13T02:30:07.580Z,99036.58
2022-09-13T02:32:40.824Z,99042.23
2022-09-13T02:35:14.063Z,99045.01
2022-09-13T02:37:47.411Z,99036.17
2022-09-13T02:40:21.015Z,99038.50
2022-09-13T02:43:15.251Z,99034.37
2022-09-13T02:45:54.588Z,99032.03
2022-09-13T02:48:37.476Z,99021.41
2022-09-13T02:51:34.291Z,99035.11
2022-09-13T02:54:38.821Z,99035.11
2022-09-13T02:57:30.643Z,99030.55
2022-09-13T03:00:01.242Z,99028.16
2022-09-13T03:02:33.702Z,99022.58
2022-09-13T03:05:04.673Z,99022.58
2022-09-13T03:07:36.471Z,99023.69
2022-09-13T03:10:09.689Z,99023.69
2022-09-13T03:12:54.983Z,99026.47
2022-09-13T03:15:30.902Z,99028.25
2022-09-13T03:18:21.839Z,99016.90
2022-09-13T03:21:10.052Z,99025.90
2022-09-13T03:23:52.038Z,99021.53
2022-09-13T03:26:28.161Z,99025.06
2022-09-13T03:29:21.171Z,99022.59
2022-09-13T03:31:54.542Z,99028.61
2022-09-13T03:34:33.552Z,99028.61
2022-09-13T03:37:24.924Z,99024.70
2022-09-13T03:40:07.187Z,99022.39
2022-09-13T03:42:52.650Z,99018.59
2022-09-13T03:45:26.318Z,99028.86
2022-09-13T03:47:57.653Z,99012.17
2022-09-13T03:50:29.262Z,99020.16
2022-09-13T03:53:05.260Z,99013.66
2022-09-13T03:55:43.327Z,99015.48
2022-09-13T03:58:34.312Z,99013.73
2022-09-13T04:01:04.724Z,99013.73
2022-09-13T04:03:35.054Z,99013.73
2022-09-13T04:06:05.842Z,99019.89
2022-09-13T04:08:36.236Z,99028.31
2022-09-13T04:11:07.610Z,99026.30
2022-09-13T04:13:38.823Z,99026.37
2022-09-13T04:16:09.622Z,99026.37
2022-09-13T04:18:39.915Z,99034.41
2022-09-13T04:21:10.371Z,99034.41
2022-09-13T04:23:40.658Z,99035.80
2022-09-13T04:26:12.398Z,99035.80
2022-09-13T04:28:45.817Z,99023.49
2022-09-13T04:31:16.389Z,99020.59
2022-09-13T04:33:49.306Z,99032.71
2022-09-13T04:36:22.232Z,99033.11
2022-09-13T04:38:53.280Z,99033.11
2022-09-13T04:41:23.620Z,99025.14
2022-09-13T04:43:53.829Z,99034.38
2022-09-13T04:46:24.247Z,99024.09
2022-09-13T04:48:55.674Z,99026.27
2022-09-13T04:51:26.081Z,99026.58
2022-09-13T04:53:57.252Z,99017.50
2022-09-13T04:56:28.052Z,99013.50
2022-09-13T04:58:58.383Z,99013.50
2022-09-13T05:01:30.160Z,99022.44
2022-09-13T05:04:03.600Z,99022.44
2022-09-13T05:06:34.474Z,99030.98
2022-09-13T05:09:05.607Z,99023.95
2022-09-13T05:11:35.913Z,99020.44
2022-09-13T05:14:06.720Z,99017.89
2022-09-13T05:16:37.846Z,99022.98
2022-09-13T05:19:09.514Z,99025.34
2022-09-13T05:21:43.637Z,99034.35
2022-09-13T05:24:14.368Z,99035.41
2022-09-13T05:26:44.525Z,99040.08
2022-09-13T05:29:14.832Z,99032.45
2022-09-13T05:31:45.541Z,99035.11
2022-09-13T05:34:17.492Z,99038.86
2022-09-13T05:36:53.188Z,99039.11
2022-09-13T05:39:31.854Z,99046.41
2022-09-13T05:42:12.891Z,99053.30
2022-09-13T05:44:45.346Z,99042.20
2022-09-13T05:47:17.752Z,99045.70
2022-09-13T05:50:08.934Z,99051.32
2022-09-13T05:52:20.258Z,99049.65
2022-09-13T05:54:50.485Z,99049.65
2022-09-13T05:57:21.141Z,99055.30
2022-09-13T05:59:51.277Z,99045.98
2022-09-13T06:02:22.233Z,99052.73
2022-09-13T06:04:52.590Z,99048.36
2022-09-13T06:07:22.981Z,99055.06
2022-09-13T06:09:53.214Z,99067.77
2022-09-13T06:12:23.661Z,99067.77
2022-09-13T06:14:54.653Z,99060.09
2022-09-13T06:17:25.277Z,99063.53
2022-09-13T06:19:55.617Z,99056.66
2022-09-13T06:22:25.863Z,99064.91
2022-09-13T06:24:56.370Z,99075.30
2022-09-13T06:27:26.676Z,99071.41
2022-09-13T06:29:56.920Z,99060.78
2022-09-13T06:32:28.729Z,99060.78
2022-09-13T06:34:59.731Z,99073.13
2022-09-13T06:37:30.107Z,99079.70
2022-09-13T06:40:00.904Z,99079.70
2022-09-13T06:42:35.014Z,99062.02
2022-09-13T06:47:43.604Z,99076.47
2022-09-13T06:50:15.400Z,99081.69
2022-09-13T06:52:46.131Z,99083.47
2022-09-13T06:55:19.217Z,99073.43
2022-09-13T06:57:49.950Z,99153.17
2022-09-13T07:00:20.296Z,99069.70
2022-09-13T07:02:54.062Z,99069.70
2022-09-13T07:05:26.667Z,99073.13
2022-09-13T07:07:57.373Z,99079.70
2022-09-13T07:10:28.432Z,99079.70
2022-09-13T07:12:59.108Z,99083.59
2022-09-13T07:15:32.421Z,99086.67
2022-09-13T07:18:02.772Z,99076.88
2022-09-13T07:20:34.664Z,99076.88
2022-09-13T07:23:15.448Z,99079.65
2022-09-13T07:25:49.047Z,99077.72
2022-09-13T07:28:22.206Z,99086.97
2022-09-13T07:30:52.162Z,99089.97
2022-09-13T07:33:22.747Z,99086.03
2022-09-13T07:36:17.360Z,99090.55
2022-09-13T07:38:50.696Z,99082.77
2022-09-13T07:41:25.322Z,99085.67
2022-09-13T07:43:57.922Z,99089.66
2022-09-13T07:46:30.649Z,99086.70
2022-09-13T07:49:05.067Z,99086.70
2022-09-13T07:51:37.602Z,99083.58
2022-09-13T07:54:13.891Z,99077.38
2022-09-13T07:56:44.730Z,99092.46
2022-09-13T07:59:26.991Z,99092.46
2022-09-13T08:02:09.719Z,99087.45
2022-09-13T08:04:51.517Z,99087.05
2022-09-13T08:07:23.529Z,99085.84
2022-09-13T08:09:55.571Z,99074.59
2022-09-13T08:12:27.264Z,99082.94
2022-09-13T08:14:58.172Z,99082.94
2022-09-13T08:17:30.613Z,99072.72
2022-09-13T08:20:05.711Z,99072.72
2022-09-13T08:22:34.795Z,99069.62
2022-09-13T08:25:06.777Z,99076.81
2022-09-13T08:27:42.287Z,99065.97
2022-09-13T08:30:14.643Z,99064.16
2022-09-13T08:32:45.096Z,99061.30
2022-09-13T08:35:15.752Z,99061.30
2022-09-13T08:37:51.417Z,99059.96
2022-09-13T08:40:24.713Z,99059.96
2022-09-13T08:43:18.571Z,99055.83
2022-09-13T08:45:54.680Z,99069.17
2022-09-13T08:48:27.951Z,99074.24
2022-09-13T08:51:08.714Z,99074.24
2022-09-13T08:53:50.985Z,99075.95
2022-09-13T08:56:43.922Z,99070.27
2022-09-13T08:59:48.009Z,99083.84
2022-09-13T09:02:48.208Z,99073.43
2022-09-13T09:05:39.602Z,99069.31
2022-09-13T09:08:35.930Z,99079.64
2022-09-13T09:11:10.811Z,99083.64
2022-09-13T09:13:49.699Z,99083.64
2022-09-13T09:16:38.314Z,99071.72
2022-09-13T09:19:23.713Z,99085.03
2022-09-13T09:21:59.178Z,99072.76
2022-09-13T09:24:40.883Z,99071.56
2022-09-13T09:27:22.259Z,99071.32
2022-09-13T09:30:09.603Z,99059.83
2022-09-13T09:32:56.813Z,99052.49
2022-09-13T09:35:46.426Z,99052.49
2022-09-13T09:38:43.096Z,99056.52
2022-09-13T09:41:22.550Z,99058.70
2022-09-13T09:43:55.806Z,99058.70
2022-09-13T09:46:33.681Z,99056.20
2022-09-13T09:49:09.492Z,99066.56
2022-09-13T09:51:40.636Z,99062.55
2022-09-13T09:54:15.025Z,99062.55
2022-09-13T09:56:48.632Z,99061.95
2022-09-13T09:59:29.561Z,99066.34
2022-09-13T10:04:57.285Z,99056.52
2022-09-13T10:07:34.293Z,99055.05
2022-09-13T10:10:16.549Z,99053.45
2022-09-13T10:13:03.393Z,99054.64
2022-09-13T10:15:54.557Z,99053.52
2022-09-13T10:18:43.318Z,99053.52
2022-09-13T10:21:22.380Z,99055.64
2022-09-13T10:23:54.804Z,99057.05
2022-09-13T10:26:27.228Z,99051.70
2022-09-13T10:29:13.529Z,99051.70
2022-09-13T10:31:47.001Z,99053.70
2022-09-13T10:34:22.629Z,99054.28
2022-09-13T10:37:05.182Z,99054.28
2022-09-13T10:39:37.612Z,99044.66
2022-09-13T10:42:13.174Z,99044.66
2022-09-13T10:45:12.363Z,99053.72
2022-09-13T10:47:49.435Z,99052.54
2022-09-13T10:50:46.432Z,99047.67
2022-09-13T10:53:40.564Z,99044.26
2022-09-13T10:56:23.507Z,99044.26
2022-09-13T10:59:24.641Z,99047.08
2022-09-13T11:02:12.820Z,99037.73
2022-09-13T11:05:05.782Z,99037.73
2022-09-13T11:12:30.747Z,99046.23
2022-09-13T11:14:39.228Z,99037.34
2022-09-13T11:17:21.503Z,99033.61
2022-09-13T11:20:03.413Z,99037.20
2022-09-13T11:22:46.075Z,99037.20
2022-09-13T11:25:51.950Z,99029.61
2022-09-13T11:28:30.121Z,99033.91
2022-09-13T11:31:28.647Z,99033.91
2022-09-13T11:34:16.677Z,99039.00
2022-09-13T11:36:57.016Z,99025.37
2022-09-13T11:39:42.305Z,99027.39
2022-09-13T11:42:38.108Z,99027.39
2022-09-13T11:45:23.339Z,99033.42
2022-09-13T11:48:15.559Z,99031.83
2022-09-13T11:50:51.900Z,99031.00
2022-09-13T11:53:47.582Z,99031.42
2022-09-13T11:56:49.037Z,99032.94
2022-09-13T11:59:42.943Z,99040.13
2022-09-13T12:02:37.894Z,99040.13
2022-09-13T12:05:23.748Z,99034.13
2022-09-13T12:07:57.539Z,99031.45
2022-09-13T12:11:00.368Z,99031.82
2022-09-13T12:13:33.881Z,99031.82
2022-09-13T12:16:07.829Z,99022.74
2022-09-13T12:18:41.378Z,99022.74
2022-09-13T12:21:17.573Z,99026.98
2022-09-13T12:24:03.459Z,99021.78
2022-09-13T12:26:55.598Z,99028.35
2022-09-13T12:32:09.323Z,99030.07
2022-09-13T12:38:40.941Z,99036.61
2022-09-13T12:41:32.810Z,99036.61
2022-09-13T12:44:33.408Z,99041.96
2022-09-13T12:47:13.819Z,99036.89
2022-09-13T12:49:53.361Z,99045.14
2022-09-13T12:52:32.230Z,99042.02
2022-09-13T12:58:21.074Z,99039.91
2022-09-13T13:01:14.681Z,99045.80
2022-09-13T13:03:50.393Z,99051.26
2022-09-13T13:06:26.258Z,99043.05
2022-09-13T13:08:59.479Z,99050.77
2022-09-13T13:11:32.641Z,99041.26
2022-09-13T13:14:11.981Z,99006.23
2022-09-13T13:16:43.764Z,99054.94
2022-09-13T13:19:34.507Z,99065.19
2022-09-13T13:22:41.051Z,99052.83
2022-09-13T13:25:31.007Z,99053.45
2022-09-13T13:28:01.319Z,99053.45
2022-09-13T13:30:40.692Z,99054.65
2022-09-13T13:33:17.155Z,99056.55
2022-09-13T13:35:56.462Z,99055.70
2022-09-13T13:38:33.397Z,99068.31
2022-09-13T13:41:26.158Z,99057.40
2022-09-13T13:43:56.603Z,99057.40
2022-09-13T13:46:29.797Z,99062.39
2022-09-13T13:49:31.935Z,99060.11
2022-09-13T13:52:13.009Z,99064.80
2022-09-13T13:54:46.972Z,99073.85
2022-09-13T13:57:34.889Z,99073.70
2022-09-13T14:00:27.723Z,99073.70
2022-09-13T14:03:03.439Z,99074.14
2022-09-13T14:09:13.588Z,99076.28
2022-09-13T14:12:14.782Z,99070.37
2022-09-13T14:15:12.215Z,99068.72
2022-09-13T14:17:57.320Z,99077.66
2022-09-13T14:20:27.723Z,99079.44
2022-09-13T14:23:20.498Z,99090.19
2022-09-13T14:25:58.577Z,99085.61
2022-09-13T14:28:29.668Z,99089.45
2022-09-13T14:31:00.577Z,99089.45
2022-09-13T14:33:36.459Z,99090.11
2022-09-13T14:36:09.965Z,99095.98
2022-09-13T14:38:43.172Z,99099.31
2022-09-13T14:41:17.397Z,99097.71
2022-09-13T14:43:49.979Z,99106.39
2022-09-13T14:46:26.263Z,99096.09
2022-09-13T14:48:59.537Z,99096.09
2022-09-13T14:51:38.701Z,99094.05
2022-09-13T14:54:17.537Z,99107.91
2022-09-13T14:56:50.754Z,99109.55
2022-09-13T14:59:30.167Z,99112.84
2022-09-13T15:02:09.178Z,99105.10
2022-09-13T15:04:43.123Z,99105.10
2022-09-13T15:07:25.263Z,99110.53
2022-09-13T15:10:07.649Z,99105.16
2022-09-13T15:12:38.768Z,99109.61
2022-09-13T15:15:23.921Z,99105.98
2022-09-13T15:17:57.659Z,99105.98
2022-09-13T15:20:30.963Z,99108.44
2022-09-13T15:23:02.857Z,99120.40
2022-09-13T15:25:34.308Z,99117.87
2022-09-13T15:28:04.701Z,99121.27
2022-09-13T15:30:41.001Z,99121.09
2022-09-13T15:33:19.139Z,99122.67
2022-09-13T15:36:22.100Z,99122.67
2022-09-13T15:39:04.625Z,99127.28
2022-09-13T15:41:37.526Z,99130.00
2022-09-13T15:44:10.241Z,99132.27
2022-09-13T15:47:10.697Z,99130.91
2022-09-13T15:49:42.787Z,99128.27
2022-09-13T15:52:14.992Z,99132.93
2022-09-13T15:54:48.427Z,99132.93
2022-09-13T15:57:27.594Z,99132.93
2022-09-13T16:00:01.511Z,99148.13
2022-09-13T16:02:43.832Z,99150.39
2022-09-13T16:05:16.629Z,99150.39
2022-09-13T16:07:46.956Z,99156.88
2022-09-13T16:10:21.300Z,99157.73
2022-09-13T16:12:53.304Z,99157.54
2022-09-13T16:15:26.028Z,99156.34
2022-09-13T16:17:58.120Z,99162.03
2022-09-13T16:20:31.997Z,99173.56
2022-09-13T16:23:04.378Z,99179.25
2022-09-13T16:25:36.597Z,99170.68
2022-09-13T16:28:10.711Z,99170.68
2022-09-13T16:30:44.795Z,99175.66
2022-09-13T16:33:15.334Z,99174.35
2022-09-13T16:35:46.141Z,99174.35
2022-09-13T16:38:18.395Z,99183.86
2022-09-13T16:40:50.014Z,99194.59
2022-09-13T16:43:24.032Z,99182.12
2022-09-13T16:45:54.347Z,99184.67
2022-09-13T16:48:25.076Z,99196.48
2022-09-13T16:50:56.936Z,99203.33
2022-09-13T16:53:27.335Z,99199.13
2022-09-13T16:56:09.765Z,99196.97
2022-09-13T16:58:44.757Z,99194.65
2022-09-13T17:01:18.096Z,99203.47
2022-09-13T17:03:54.585Z,99203.47
2022-09-13T17:06:24.807Z,99206.91
2022-09-13T17:09:00.560Z,99214.89
2022-09-13T17:11:34.190Z,99206.00
2022-09-13T17:14:06.659Z,99217.31
2022-09-13T17:16:40.498Z,99219.62
2022-09-13T17:19:17.969Z,99234.59
2022-09-13T17:21:50.337Z,99234.59
2022-09-13T17:24:20.505Z,99229.23
2022-09-13T17:26:51.338Z,99225.65
2022-09-13T17:29:21.633Z,99238.11
2022-09-13T17:31:52.703Z,99245.42
2022-09-13T17:34:23.021Z,99260.78
2022-09-13T17:36:54.128Z,99237.34
2022-09-13T17:39:29.712Z,99239.97
2022-09-13T17:42:00.195Z,99253.49
2022-09-13T17:44:33.224Z,99253.49
2022-09-13T17:47:06.627Z,99257.68
2022-09-13T17:49:37.359Z,99257.68
2022-09-13T17:52:07.640Z,99265.84
2022-09-13T17:54:38.306Z,99265.11
2022-09-13T17:57:21.380Z,99267.88
2022-09-13T18:00:08.363Z,99261.35
2022-09-13T18:02:38.962Z,99267.47
2022-09-13T18:05:13.637Z,99264.23
2022-09-13T18:07:44.318Z,99264.23
2022-09-13T18:10:45.263Z,99272.08
2022-09-13T18:12:52.454Z,99271.88
2022-09-13T18:15:25.252Z,99269.56
2022-09-13T18:17:58.041Z,99269.56
2022-09-13T18:20:28.639Z,99275.58
2022-09-13T18:23:01.837Z,99271.56
2022-09-13T18:25:32.242Z,99272.23
2022-09-13T18:28:04.260Z,99272.23
2022-09-13T18:30:37.635Z,99284.20
2022-09-13T18:33:11.510Z,99284.20
2022-09-13T18:35:42.500Z,99271.58
2022-09-13T18:38:22.936Z,99271.58
2022-09-13T18:41:09.814Z,99288.83
2022-09-13T18:43:41.705Z,99286.25
2022-09-13T18:46:20.421Z,99290.36
2022-09-13T18:48:54.454Z,99291.48
2022-09-13T18:51:29.387Z,99291.48
2022-09-13T18:54:10.828Z,99294.03
2022-09-13T18:56:48.535Z,99289.44
2022-09-13T18:59:37.686Z,99291.27
2022-09-13T19:02:10.831Z,99295.07
2022-09-13T19:04:44.296Z,99288.25
2022-09-13T19:07:22.741Z,99287.77
2022-09-13T19:09:51.983Z,99288.85
2022-09-13T19:12:27.293Z,99288.85
2022-09-13T19:15:05.892Z,99289.95
2022-09-13T19:17:39.980Z,99275.21
2022-09-13T19:20:10.730Z,99279.24
2022-09-13T19:22:44.900Z,99286.23
2022-09-13T19:25:15.940Z,99294.95
2022-09-13T19:27:47.398Z,99294.95
2022-09-13T19:30:28.311Z,99278.05
2022-09-13T19:33:03.527Z,99279.31
2022-09-13T19:35:40.686Z,99285.45
2022-09-13T19:38:10.934Z,99279.67
2022-09-13T19:40:46.107Z,99279.67
2022-09-13T19:43:19.386Z,99287.06
2022-09-13T19:46:17.670Z,99289.66
2022-09-13T19:48:50.268Z,99293.09
2022-09-13T19:51:26.253Z,99293.39
2022-09-13T19:53:59.734Z,99298.59
2022-09-13T19:56:34.984Z,99298.29
2022-09-13T19:59:17.180Z,99300.36
2022-09-13T20:01:54.939Z,99300.36
2022-09-13T20:04:28.182Z,99293.61
2022-09-13T20:06:58.554Z,99296.79
2022-09-13T20:09:30.825Z,99296.79
2022-09-13T20:12:07.221Z,99292.91
2022-09-13T20:14:39.157Z,99302.17
2022-09-13T20:17:11.828Z,99305.88
2022-09-13T20:19:49.125Z,99305.88
2022-09-13T20:22:14.560Z,99303.58
2022-09-13T20:24:45.083Z,99301.46
2022-09-13T20:27:18.998Z,99303.76
2022-09-13T20:29:51.888Z,99303.76
2022-09-13T20:32:24.114Z,99297.20
2022-09-13T20:34:54.629Z,99306.89
2022-09-13T20:37:28.165Z,99311.26
2022-09-13T20:40:01.589Z,99311.26
2022-09-13T20:42:34.444Z,99306.02
2022-09-13T20:45:08.932Z,99316.94
2022-09-13T20:47:40.165Z,99309.34
2022-09-13T20:50:11.130Z,99319.47
2022-09-13T20:52:41.498Z,99320.15
2022-09-13T20:55:11.727Z,99321.47
2022-09-13T20:57:47.867Z,99321.47
2022-09-13T21:00:18.067Z,99328.20
2022-09-13T21:02:48.347Z,99328.20
2022-09-13T21:05:22.000Z,99326.22
2022-09-13T21:07:53.101Z,99326.22
2022-09-13T21:10:26.549Z,99327.75
2022-09-13T21:12:56.704Z,99334.98
2022-09-13T21:15:27.137Z,99332.91
2022-09-13T21:18:00.191Z,99334.73
2022-09-13T21:20:35.565Z,99331.00
2022-09-13T21:23:05.131Z,99331.75
2022-09-13T21:25:36.960Z,99338.06
2022-09-13T21:28:08.051Z,99337.78
2022-09-13T21:30:39.222Z,99346.48
2022-09-13T21:33:09.591Z,99345.75
2022-09-13T21:35:39.964Z,99345.75
2022-09-13T21:38:10.479Z,99348.53
2022-09-13T21:40:40.796Z,99348.53
2022-09-13T21:43:26.351Z,99346.03
2022-09-13T21:45:56.699Z,99346.03
2022-09-13T21:48:27.889Z,99353.14
2022-09-13T21:51:27.967Z,99347.57
2022-09-13T21:54:00.854Z,99349.08
2022-09-13T21:56:32.742Z,99350.75
2022-09-13T21:59:05.610Z,99348.62
2022-09-13T22:01:57.319Z,99348.62
2022-09-13T22:04:27.913Z,99356.33
2022-09-13T22:06:58.298Z,99357.95
2022-09-13T22:09:29.025Z,99363.06
2022-09-13T22:11:59.773Z,99364.74
2022-09-13T22:14:29.973Z,99359.77
2022-09-13T22:17:00.632Z,99363.55
2022-09-13T22:19:30.943Z,99353.68
2022-09-13T22:22:01.192Z,99356.10
2022-09-13T22:24:32.045Z,99356.10
2022-09-13T22:27:02.475Z,99360.67
2022-09-13T22:29:32.944Z,99369.62
2022-09-13T22:32:03.505Z,99378.70
2022-09-13T22:34:33.873Z,99373.27
2022-09-13T22:37:04.688Z,99383.45
2022-09-13T22:39:36.634Z,99377.85
2022-09-13T22:42:06.876Z,99377.85
2022-09-13T22:44:37.147Z,99385.14
2022-09-13T22:47:07.272Z,99383.61
2022-09-13T22:49:37.832Z,99383.61
2022-09-13T22:52:08.147Z,99379.72
2022-09-13T22:54:39.063Z,99377.68
2022-09-13T22:57:09.491Z,99377.68
2022-09-13T22:59:40.108Z,99381.58
2022-09-13T23:02:10.864Z,99386.83
2022-09-13T23:04:41.330Z,99386.83
2022-09-13T23:07:11.864Z,99391.11
2022-09-13T23:09:42.407Z,99386.15
2022-09-13T23:12:14.071Z,99378.75
2022-09-13T23:14:45.426Z,99378.75
2022-09-13T23:17:15.649Z,99380.97
2022-09-13T23:19:45.820Z,99380.97
2022-09-13T23:22:15.891Z,99383.40
2022-09-13T23:24:46.555Z,99381.30
2022-09-13T23:27:16.832Z,99386.24
2022-09-13T23:29:50.000Z,99387.83
2022-09-13T23:32:20.507Z,99395.79
2022-09-13T23:34:50.783Z,99395.79
2022-09-13T23:37:21.370Z,99404.69
2022-09-13T23:39:51.727Z,99408.98
2022-09-13T23:42:21.903Z,99412.52
2022-09-13T23:44:52.424Z,99416.49
2022-09-13T23:47:22.959Z,99419.49
2022-09-13T23:49:53.207Z,99428.03
2022-09-13T23:52:23.519Z,99428.03
2022-09-13T23:54:56.044Z,99428.17
2022-09-13T23:57:26.458Z,99432.28
